sensor_id;sensor_type;location;lat;lon;timestamp;pressure;altitude;pressure_sealevel;temperature
68745;BMP180;66104;45.456;11.064;2023-01-01T00:01:44;102199.20;;;11.10
68745;BMP180;66104;45.456;11.064;2023-01-01T00:04:21;102196.00;;;11.10
68745;BMP180;66104;45.456;11.064;2023-01-01T00:06:58;102192.00;;;11.10
68745;BMP180;66104;45.456;11.064;2023-01-01T00:09:35;102193.40;;;11.06
68745;BMP180;66104;45.456;11.064;2023-01-01T00:12:28;102190.20;;;11.00
68745;BMP180;66104;45.456;11.064;2023-01-01T00:15:08;102187.80;;;10.90
68745;BMP180;66104;45.456;11.064;2023-01-01T00:17:45;102193.60;;;10.90
68745;BMP180;66104;45.456;11.064;2023-01-01T00:20:22;102193.40;;;11.00
68745;BMP180;66104;45.456;11.064;2023-01-01T00:23:05;102188.80;;;11.10
68745;BMP180;66104;45.456;11.064;2023-01-01T00:25:44;102186.00;;;11.10
68745;BMP180;66104;45.456;11.064;2023-01-01T00:28:20;102186.60;;;11.00
68745;BMP180;66104;45.456;11.064;2023-01-01T00:30:57;102181.60;;;10.90
68745;BMP180;66104;45.456;11.064;2023-01-01T00:33:33;102182.40;;;10.90
68745;BMP180;66104;45.456;11.064;2023-01-01T00:36:16;102184.00;;;10.90
68745;BMP180;66104;45.456;11.064;2023-01-01T00:38:52;102186.40;;;10.90
68745;BMP180;66104;45.456;11.064;2023-01-01T00:41:29;102182.80;;;10.90
68745;BMP180;66104;45.456;11.064;2023-01-01T00:44:06;102185.60;;;10.90
68745;BMP180;66104;45.456;11.064;2023-01-01T00:46:41;102181.60;;;10.90
68745;BMP180;66104;45.456;11.064;2023-01-01T00:49:18;102179.80;;;10.90
68745;BMP180;66104;45.456;11.064;2023-01-01T00:51:55;102180.80;;;11.00
68745;BMP180;66104;45.456;11.064;2023-01-01T00:54:32;102182.00;;;11.00
68745;BMP180;66104;45.456;11.064;2023-01-01T00:57:10;102181.00;;;11.00
68745;BMP180;66104;45.456;11.064;2023-01-01T00:59:48;102180.00;;;10.90
68745;BMP180;66104;45.456;11.064;2023-01-01T01:02:24;102178.20;;;10.90
68745;BMP180;66104;45.456;11.064;2023-01-01T01:05:01;102173.20;;;10.90
68745;BMP180;66104;45.456;11.064;2023-01-01T01:07:40;102182.20;;;10.90
68745;BMP180;66104;45.456;11.064;2023-01-01T01:10:18;102190.00;;;10.90
68745;BMP180;66104;45.456;11.064;2023-01-01T01:12:55;102188.60;;;10.90
68745;BMP180;66104;45.456;11.064;2023-01-01T01:15:31;102184.80;;;10.90
68745;BMP180;66104;45.456;11.064;2023-01-01T01:18:08;102184.00;;;10.84
68745;BMP180;66104;45.456;11.064;2023-01-01T01:20:53;102185.80;;;10.88
68745;BMP180;66104;45.456;11.064;2023-01-01T01:23:29;102190.20;;;10.90
68745;BMP180;66104;45.456;11.064;2023-01-01T01:26:16;102191.40;;;11.00
68745;BMP180;66104;45.456;11.064;2023-01-01T01:28:53;102193.80;;;11.00
68745;BMP180;66104;45.456;11.064;2023-01-01T01:31:32;102189.60;;;11.06
68745;BMP180;66104;45.456;11.064;2023-01-01T01:34:10;102186.60;;;11.00
68745;BMP180;66104;45.456;11.064;2023-01-01T01:36:49;102183.80;;;11.00
68745;BMP180;66104;45.456;11.064;2023-01-01T01:39:26;102181.60;;;10.96
68745;BMP180;66104;45.456;11.064;2023-01-01T01:42:02;102181.40;;;11.00
68745;BMP180;66104;45.456;11.064;2023-01-01T01:44:59;102181.00;;;11.08
68745;BMP180;66104;45.456;11.064;2023-01-01T01:47:41;102180.80;;;11.10
68745;BMP180;66104;45.456;11.064;2023-01-01T01:50:27;102179.00;;;11.10
68745;BMP180;66104;45.456;11.064;2023-01-01T01:53:11;102171.40;;;11.08
68745;BMP180;66104;45.456;11.064;2023-01-01T01:55:56;102177.20;;;11.10
68745;BMP180;66104;45.456;11.064;2023-01-01T01:58:35;102177.40;;;11.10
68745;BMP180;66104;45.456;11.064;2023-01-01T02:01:12;102172.40;;;11.10
68745;BMP180;66104;45.456;11.064;2023-01-01T02:03:54;102175.00;;;11.10
68745;BMP180;66104;45.456;11.064;2023-01-01T02:06:34;102173.00;;;11.10
68745;BMP180;66104;45.456;11.064;2023-01-01T02:09:12;102175.00;;;11.10
68745;BMP180;66104;45.456;11.064;2023-01-01T02:11:49;102170.20;;;11.10
68745;BMP180;66104;45.456;11.064;2023-01-01T02:14:26;102167.00;;;11.10
68745;BMP180;66104;45.456;11.064;2023-01-01T02:17:11;102155.40;;;11.10
68745;BMP180;66104;45.456;11.064;2023-01-01T02:20:14;102155.20;;;11.10
68745;BMP180;66104;45.456;11.064;2023-01-01T02:29:31;102141.60;;;11.00
68745;BMP180;66104;45.456;11.064;2023-01-01T02:32:14;102135.60;;;11.00
68745;BMP180;66104;45.456;11.064;2023-01-01T02:34:56;102144.60;;;10.94
68745;BMP180;66104;45.456;11.064;2023-01-01T02:37:33;102144.00;;;11.00
68745;BMP180;66104;45.456;11.064;2023-01-01T02:40:13;102142.20;;;11.00
68745;BMP180;66104;45.456;11.064;2023-01-01T02:42:53;102144.20;;;11.00
68745;BMP180;66104;45.456;11.064;2023-01-01T02:45:31;102151.40;;;11.00
68745;BMP180;66104;45.456;11.064;2023-01-01T02:48:40;102147.40;;;11.00
68745;BMP180;66104;45.456;11.064;2023-01-01T02:51:25;102147.60;;;11.00
68745;BMP180;66104;45.456;11.064;2023-01-01T02:54:14;102142.40;;;11.10
68745;BMP180;66104;45.456;11.064;2023-01-01T02:57:03;102143.00;;;11.12
68745;BMP180;66104;45.456;11.064;2023-01-01T02:59:53;102151.60;;;11.10
68745;BMP180;66104;45.456;11.064;2023-01-01T03:03:12;102146.00;;;11.10
68745;BMP180;66104;45.456;11.064;2023-01-01T03:05:59;102149.40;;;11.00
68745;BMP180;66104;45.456;11.064;2023-01-01T03:09:06;102148.00;;;11.00
68745;BMP180;66104;45.456;11.064;2023-01-01T03:11:55;102147.80;;;11.00
68745;BMP180;66104;45.456;11.064;2023-01-01T03:14:43;102146.40;;;11.00
68745;BMP180;66104;45.456;11.064;2023-01-01T03:17:28;102146.60;;;11.00
68745;BMP180;66104;45.456;11.064;2023-01-01T03:20:12;102145.60;;;11.00
68745;BMP180;66104;45.456;11.064;2023-01-01T03:22:52;102140.40;;;11.00
68745;BMP180;66104;45.456;11.064;2023-01-01T03:25:33;102137.00;;;11.00
68745;BMP180;66104;45.456;11.064;2023-01-01T03:28:17;102137.60;;;11.00
68745;BMP180;66104;45.456;11.064;2023-01-01T03:30:57;102133.00;;;11.00
68745;BMP180;66104;45.456;11.064;2023-01-01T03:33:41;102137.40;;;11.00
68745;BMP180;66104;45.456;11.064;2023-01-01T03:36:26;102134.20;;;11.00
68745;BMP180;66104;45.456;11.064;2023-01-01T03:39:09;102129.40;;;10.96
68745;BMP180;66104;45.456;11.064;2023-01-01T03:41:53;102130.60;;;10.90
68745;BMP180;66104;45.456;11.064;2023-01-01T03:44:40;102132.80;;;10.90
68745;BMP180;66104;45.456;11.064;2023-01-01T03:47:19;102130.00;;;11.00
68745;BMP180;66104;45.456;11.064;2023-01-01T03:49:56;102131.80;;;11.00
68745;BMP180;66104;45.456;11.064;2023-01-01T03:52:47;102125.40;;;11.00
68745;BMP180;66104;45.456;11.064;2023-01-01T03:55:35;102117.80;;;11.00
68745;BMP180;66104;45.456;11.064;2023-01-01T03:58:27;102120.20;;;11.00
68745;BMP180;66104;45.456;11.064;2023-01-01T04:01:13;102119.60;;;11.00
68745;BMP180;66104;45.456;11.064;2023-01-01T04:03:52;102114.80;;;11.00
68745;BMP180;66104;45.456;11.064;2023-01-01T04:06:29;102118.60;;;11.10
68745;BMP180;66104;45.456;11.064;2023-01-01T04:09:11;102117.00;;;11.10
68745;BMP180;66104;45.456;11.064;2023-01-01T04:11:51;102114.20;;;11.20
68745;BMP180;66104;45.456;11.064;2023-01-01T04:14:40;102105.80;;;11.20
68745;BMP180;66104;45.456;11.064;2023-01-01T04:17:16;102108.40;;;11.10
68745;BMP180;66104;45.456;11.064;2023-01-01T04:19:53;102110.40;;;11.06
68745;BMP180;66104;45.456;11.064;2023-01-01T04:22:30;102107.20;;;11.02
68745;BMP180;66104;45.456;11.064;2023-01-01T04:25:11;102113.60;;;11.10
68745;BMP180;66104;45.456;11.064;2023-01-01T04:27:47;102116.40;;;11.10
68745;BMP180;66104;45.456;11.064;2023-01-01T04:30:24;102122.80;;;11.10
68745;BMP180;66104;45.456;11.064;2023-01-01T04:33:01;102125.00;;;11.10
68745;BMP180;66104;45.456;11.064;2023-01-01T04:35:38;102123.20;;;11.10
68745;BMP180;66104;45.456;11.064;2023-01-01T04:38:18;102123.20;;;11.10
68745;BMP180;66104;45.456;11.064;2023-01-01T04:41:03;102122.20;;;11.10
68745;BMP180;66104;45.456;11.064;2023-01-01T04:43:40;102123.60;;;11.10
68745;BMP180;66104;45.456;11.064;2023-01-01T04:46:17;102113.60;;;11.08
68745;BMP180;66104;45.456;11.064;2023-01-01T04:48:53;102111.60;;;11.02
68745;BMP180;66104;45.456;11.064;2023-01-01T04:51:29;102113.20;;;11.00
68745;BMP180;66104;45.456;11.064;2023-01-01T04:54:07;102119.80;;;11.06
68745;BMP180;66104;45.456;11.064;2023-01-01T04:56:43;102116.00;;;11.10
68745;BMP180;66104;45.456;11.064;2023-01-01T04:59:20;102115.20;;;11.10
68745;BMP180;66104;45.456;11.064;2023-01-01T05:01:55;102120.80;;;11.10
68745;BMP180;66104;45.456;11.064;2023-01-01T05:04:31;102118.60;;;11.10
68745;BMP180;66104;45.456;11.064;2023-01-01T05:07:07;102121.00;;;11.10
68745;BMP180;66104;45.456;11.064;2023-01-01T05:09:45;102117.60;;;11.10
68745;BMP180;66104;45.456;11.064;2023-01-01T05:12:22;102117.60;;;11.10
68745;BMP180;66104;45.456;11.064;2023-01-01T05:14:59;102118.00;;;11.16
68745;BMP180;66104;45.456;11.064;2023-01-01T05:17:36;102124.40;;;11.20
68745;BMP180;66104;45.456;11.064;2023-01-01T05:20:16;102129.80;;;11.20
68745;BMP180;66104;45.456;11.064;2023-01-01T05:22:53;102130.20;;;11.10
68745;BMP180;66104;45.456;11.064;2023-01-01T05:25:31;102126.40;;;11.10
68745;BMP180;66104;45.456;11.064;2023-01-01T05:28:08;102130.00;;;11.10
68745;BMP180;66104;45.456;11.064;2023-01-01T05:30:45;102127.40;;;11.10
68745;BMP180;66104;45.456;11.064;2023-01-01T05:33:21;102131.00;;;11.10
68745;BMP180;66104;45.456;11.064;2023-01-01T05:35:59;102126.60;;;11.10
68745;BMP180;66104;45.456;11.064;2023-01-01T05:38:35;102119.40;;;11.06
68745;BMP180;66104;45.456;11.064;2023-01-01T05:41:14;102120.40;;;11.00
68745;BMP180;66104;45.456;11.064;2023-01-01T05:43:51;102125.40;;;11.00
68745;BMP180;66104;45.456;11.064;2023-01-01T05:46:27;102126.00;;;11.00
68745;BMP180;66104;45.456;11.064;2023-01-01T05:49:05;102128.00;;;11.00
68745;BMP180;66104;45.456;11.064;2023-01-01T05:51:41;102123.20;;;11.00
68745;BMP180;66104;45.456;11.064;2023-01-01T05:54:18;102116.80;;;11.04
68745;BMP180;66104;45.456;11.064;2023-01-01T05:56:55;102119.60;;;11.00
68745;BMP180;66104;45.456;11.064;2023-01-01T05:59:32;102121.20;;;11.00
68745;BMP180;66104;45.456;11.064;2023-01-01T06:02:09;102123.00;;;11.00
68745;BMP180;66104;45.456;11.064;2023-01-01T06:04:46;102126.20;;;11.00
68745;BMP180;66104;45.456;11.064;2023-01-01T06:07:23;102122.80;;;11.00
68745;BMP180;66104;45.456;11.064;2023-01-01T06:10:00;102120.00;;;11.00
68745;BMP180;66104;45.456;11.064;2023-01-01T06:12:37;102118.00;;;11.00
68745;BMP180;66104;45.456;11.064;2023-01-01T06:15:16;102119.00;;;11.00
68745;BMP180;66104;45.456;11.064;2023-01-01T06:17:54;102117.20;;;11.00
68745;BMP180;66104;45.456;11.064;2023-01-01T06:20:30;102116.40;;;10.92
68745;BMP180;66104;45.456;11.064;2023-01-01T06:23:06;102115.80;;;10.90
68745;BMP180;66104;45.456;11.064;2023-01-01T06:25:43;102116.80;;;11.00
68745;BMP180;66104;45.456;11.064;2023-01-01T06:28:19;102121.80;;;11.00
68745;BMP180;66104;45.456;11.064;2023-01-01T06:30:56;102117.80;;;11.00
68745;BMP180;66104;45.456;11.064;2023-01-01T06:33:35;102124.60;;;10.90
68745;BMP180;66104;45.456;11.064;2023-01-01T06:36:15;102121.20;;;10.90
68745;BMP180;66104;45.456;11.064;2023-01-01T06:38:54;102124.20;;;10.80
68745;BMP180;66104;45.456;11.064;2023-01-01T06:41:31;102121.20;;;10.80
68745;BMP180;66104;45.456;11.064;2023-01-01T06:44:09;102122.00;;;10.80
68745;BMP180;66104;45.456;11.064;2023-01-01T06:46:45;102123.00;;;10.76
68745;BMP180;66104;45.456;11.064;2023-01-01T06:49:22;102127.00;;;10.70
68745;BMP180;66104;45.456;11.064;2023-01-01T06:51:59;102127.20;;;10.70
68745;BMP180;66104;45.456;11.064;2023-01-01T06:54:36;102133.20;;;10.70
68745;BMP180;66104;45.456;11.064;2023-01-01T06:57:13;102134.20;;;10.70
68745;BMP180;66104;45.456;11.064;2023-01-01T06:59:49;102131.80;;;10.70
68745;BMP180;66104;45.456;11.064;2023-01-01T07:02:26;102132.80;;;10.70
68745;BMP180;66104;45.456;11.064;2023-01-01T07:05:03;102139.40;;;10.78
68745;BMP180;66104;45.456;11.064;2023-01-01T07:07:42;102139.60;;;10.80
68745;BMP180;66104;45.456;11.064;2023-01-01T07:10:19;102144.20;;;10.84
68745;BMP180;66104;45.456;11.064;2023-01-01T07:12:55;102140.60;;;10.84
68745;BMP180;66104;45.456;11.064;2023-01-01T07:15:32;102139.20;;;10.90
68745;BMP180;66104;45.456;11.064;2023-01-01T07:18:10;102138.60;;;11.00
68745;BMP180;66104;45.456;11.064;2023-01-01T07:20:49;102140.80;;;11.00
68745;BMP180;66104;45.456;11.064;2023-01-01T07:23:27;102140.80;;;10.90
68745;BMP180;66104;45.456;11.064;2023-01-01T07:26:05;102143.40;;;10.90
68745;BMP180;66104;45.456;11.064;2023-01-01T07:28:43;102141.40;;;10.90
68745;BMP180;66104;45.456;11.064;2023-01-01T07:31:19;102140.40;;;10.90
68745;BMP180;66104;45.456;11.064;2023-01-01T07:33:55;102143.00;;;10.90
68745;BMP180;66104;45.456;11.064;2023-01-01T07:36:32;102141.60;;;10.90
68745;BMP180;66104;45.456;11.064;2023-01-01T07:39:09;102139.80;;;10.90
68745;BMP180;66104;45.456;11.064;2023-01-01T07:41:46;102138.00;;;10.90
68745;BMP180;66104;45.456;11.064;2023-01-01T07:44:22;102139.80;;;10.80
68745;BMP180;66104;45.456;11.064;2023-01-01T07:47:13;102143.00;;;10.80
68745;BMP180;66104;45.456;11.064;2023-01-01T07:49:53;102140.40;;;10.80
68745;BMP180;66104;45.456;11.064;2023-01-01T07:52:29;102145.00;;;10.80
68745;BMP180;66104;45.456;11.064;2023-01-01T07:55:09;102138.00;;;10.80
68745;BMP180;66104;45.456;11.064;2023-01-01T07:57:49;102139.00;;;10.80
68745;BMP180;66104;45.456;11.064;2023-01-01T08:00:26;102144.00;;;10.80
68745;BMP180;66104;45.456;11.064;2023-01-01T08:03:04;102151.40;;;10.90
68745;BMP180;66104;45.456;11.064;2023-01-01T08:05:41;102152.40;;;10.90
68745;BMP180;66104;45.456;11.064;2023-01-01T08:08:18;102151.00;;;11.00
68745;BMP180;66104;45.456;11.064;2023-01-01T08:11:01;102154.20;;;11.10
68745;BMP180;66104;45.456;11.064;2023-01-01T08:13:38;102152.80;;;11.10
68745;BMP180;66104;45.456;11.064;2023-01-01T08:16:15;102154.00;;;11.10
68745;BMP180;66104;45.456;11.064;2023-01-01T08:18:51;102159.40;;;11.10
68745;BMP180;66104;45.456;11.064;2023-01-01T08:21:29;102168.80;;;11.20
68745;BMP180;66104;45.456;11.064;2023-01-01T08:24:06;102159.20;;;11.20
68745;BMP180;66104;45.456;11.064;2023-01-01T08:26:44;102164.60;;;11.20
68745;BMP180;66104;45.456;11.064;2023-01-01T08:29:23;102163.80;;;11.22
68745;BMP180;66104;45.456;11.064;2023-01-01T08:31:59;102164.80;;;11.30
68745;BMP180;66104;45.456;11.064;2023-01-01T08:34:36;102167.60;;;11.20
68745;BMP180;66104;45.456;11.064;2023-01-01T08:37:14;102164.80;;;11.20
68745;BMP180;66104;45.456;11.064;2023-01-01T08:39:53;102164.60;;;11.20
68745;BMP180;66104;45.456;11.064;2023-01-01T08:42:30;102159.60;;;11.24
68745;BMP180;66104;45.456;11.064;2023-01-01T08:45:09;102158.40;;;11.28
68745;BMP180;66104;45.456;11.064;2023-01-01T08:47:47;102161.80;;;11.26
68745;BMP180;66104;45.456;11.064;2023-01-01T08:50:24;102157.80;;;11.20
68745;BMP180;66104;45.456;11.064;2023-01-01T08:53:01;102154.40;;;11.20
68745;BMP180;66104;45.456;11.064;2023-01-01T08:55:39;102159.60;;;11.20
68745;BMP180;66104;45.456;11.064;2023-01-01T08:58:15;102161.00;;;11.20
68745;BMP180;66104;45.456;11.064;2023-01-01T09:00:52;102161.20;;;11.28
68745;BMP180;66104;45.456;11.064;2023-01-01T09:03:28;102163.80;;;11.30
68745;BMP180;66104;45.456;11.064;2023-01-01T09:06:06;102163.60;;;11.30
68745;BMP180;66104;45.456;11.064;2023-01-01T09:08:42;102162.60;;;11.30
68745;BMP180;66104;45.456;11.064;2023-01-01T09:11:26;102161.40;;;11.30
68745;BMP180;66104;45.456;11.064;2023-01-01T09:14:03;102161.60;;;11.30
68745;BMP180;66104;45.456;11.064;2023-01-01T09:16:41;102169.60;;;11.30
68745;BMP180;66104;45.456;11.064;2023-01-01T09:19:17;102167.00;;;11.40
68745;BMP180;66104;45.456;11.064;2023-01-01T09:21:54;102171.00;;;11.40
68745;BMP180;66104;45.456;11.064;2023-01-01T09:24:31;102170.60;;;11.40
68745;BMP180;66104;45.456;11.064;2023-01-01T09:27:08;102173.60;;;11.40
68745;BMP180;66104;45.456;11.064;2023-01-01T09:29:45;102173.00;;;11.40
68745;BMP180;66104;45.456;11.064;2023-01-01T09:32:22;102180.40;;;11.40
68745;BMP180;66104;45.456;11.064;2023-01-01T09:34:58;102180.20;;;11.50
68745;BMP180;66104;45.456;11.064;2023-01-01T09:37:34;102171.60;;;11.46
68745;BMP180;66104;45.456;11.064;2023-01-01T09:40:26;102172.20;;;11.40
68745;BMP180;66104;45.456;11.064;2023-01-01T09:43:17;102173.00;;;11.46
68745;BMP180;66104;45.456;11.064;2023-01-01T09:46:02;102170.00;;;11.50
68745;BMP180;66104;45.456;11.064;2023-01-01T09:48:45;102165.00;;;11.46
68745;BMP180;66104;45.456;11.064;2023-01-01T09:51:27;102170.20;;;11.46
68745;BMP180;66104;45.456;11.064;2023-01-01T09:54:14;102172.60;;;11.50
68745;BMP180;66104;45.456;11.064;2023-01-01T09:56:58;102164.40;;;11.50
68745;BMP180;66104;45.456;11.064;2023-01-01T09:59:35;102157.40;;;11.50
68745;BMP180;66104;45.456;11.064;2023-01-01T10:05:46;102158.20;;;11.60
68745;BMP180;66104;45.456;11.064;2023-01-01T10:11:34;102153.20;;;11.70
68745;BMP180;66104;45.456;11.064;2023-01-01T10:14:23;102154.40;;;11.70
68745;BMP180;66104;45.456;11.064;2023-01-01T10:17:05;102149.20;;;11.72
68745;BMP180;66104;45.456;11.064;2023-01-01T10:19:51;102144.60;;;11.80
68745;BMP180;66104;45.456;11.064;2023-01-01T10:22:35;102142.60;;;11.90
68745;BMP180;66104;45.456;11.064;2023-01-01T10:25:23;102143.80;;;11.90
68745;BMP180;66104;45.456;11.064;2023-01-01T10:28:10;102139.20;;;12.00
68745;BMP180;66104;45.456;11.064;2023-01-01T10:30:48;102135.60;;;12.10
68745;BMP180;66104;45.456;11.064;2023-01-01T10:33:25;102133.40;;;12.10
68745;BMP180;66104;45.456;11.064;2023-01-01T10:36:02;102127.20;;;12.10
68745;BMP180;66104;45.456;11.064;2023-01-01T10:38:40;102122.80;;;12.08
68745;BMP180;66104;45.456;11.064;2023-01-01T10:41:17;102126.60;;;12.00
68745;BMP180;66104;45.456;11.064;2023-01-01T10:43:54;102121.80;;;12.00
68745;BMP180;66104;45.456;11.064;2023-01-01T10:46:31;102125.20;;;12.00
68745;BMP180;66104;45.456;11.064;2023-01-01T10:49:14;102119.20;;;12.08
68745;BMP180;66104;45.456;11.064;2023-01-01T10:51:53;102118.80;;;12.10
68745;BMP180;66104;45.456;11.064;2023-01-01T10:54:36;102120.40;;;12.12
68745;BMP180;66104;45.456;11.064;2023-01-01T10:57:28;102113.40;;;12.20
68745;BMP180;66104;45.456;11.064;2023-01-01T11:00:26;102108.20;;;12.20
68745;BMP180;66104;45.456;11.064;2023-01-01T11:03:19;102109.20;;;12.20
68745;BMP180;66104;45.456;11.064;2023-01-01T11:06:21;102101.00;;;12.20
68745;BMP180;66104;45.456;11.064;2023-01-01T11:09:01;102096.80;;;12.20
68745;BMP180;66104;45.456;11.064;2023-01-01T11:11:46;102090.20;;;12.20
68745;BMP180;66104;45.456;11.064;2023-01-01T11:14:27;102086.80;;;12.20
68745;BMP180;66104;45.456;11.064;2023-01-01T11:17:05;102085.20;;;12.20
68745;BMP180;66104;45.456;11.064;2023-01-01T11:19:46;102086.00;;;12.20
68745;BMP180;66104;45.456;11.064;2023-01-01T11:22:43;102083.40;;;12.30
68745;BMP180;66104;45.456;11.064;2023-01-01T11:25:25;102083.40;;;12.38
68745;BMP180;66104;45.456;11.064;2023-01-01T11:28:21;102076.80;;;12.40
68745;BMP180;66104;45.456;11.064;2023-01-01T11:31:19;102074.00;;;12.40
68745;BMP180;66104;45.456;11.064;2023-01-01T11:33:58;102076.00;;;12.40
68745;BMP180;66104;45.456;11.064;2023-01-01T11:36:36;102074.80;;;12.40
68745;BMP180;66104;45.456;11.064;2023-01-01T11:39:24;102071.40;;;12.40
68745;BMP180;66104;45.456;11.064;2023-01-01T11:42:02;102064.20;;;12.40
68745;BMP180;66104;45.456;11.064;2023-01-01T11:44:42;102063.40;;;12.40
68745;BMP180;66104;45.456;11.064;2023-01-01T11:47:29;102062.00;;;12.40
68745;BMP180;66104;45.456;11.064;2023-01-01T11:50:21;102063.00;;;12.40
68745;BMP180;66104;45.456;11.064;2023-01-01T11:53:16;102058.60;;;12.50
68745;BMP180;66104;45.456;11.064;2023-01-01T11:56:03;102055.60;;;12.50
68745;BMP180;66104;45.456;11.064;2023-01-01T11:58:51;102057.80;;;12.50
68745;BMP180;66104;45.456;11.064;2023-01-01T12:01:35;102054.00;;;12.50
68745;BMP180;66104;45.456;11.064;2023-01-01T12:04:24;102051.60;;;12.46
68745;BMP180;66104;45.456;11.064;2023-01-01T12:07:07;102060.00;;;12.50
68745;BMP180;66104;45.456;11.064;2023-01-01T12:09:54;102049.80;;;12.50
68745;BMP180;66104;45.456;11.064;2023-01-01T12:12:38;102050.40;;;12.46
68745;BMP180;66104;45.456;11.064;2023-01-01T12:15:25;102052.20;;;12.40
68745;BMP180;66104;45.456;11.064;2023-01-01T12:18:14;102053.40;;;12.48
68745;BMP180;66104;45.456;11.064;2023-01-01T12:20:57;102049.60;;;12.50
68745;BMP180;66104;45.456;11.064;2023-01-01T12:23:35;102043.00;;;12.50
68745;BMP180;66104;45.456;11.064;2023-01-01T12:26:18;102045.60;;;12.56
68745;BMP180;66104;45.456;11.064;2023-01-01T12:29:35;102042.80;;;12.60
68745;BMP180;66104;45.456;11.064;2023-01-01T12:32:26;102045.20;;;12.60
68745;BMP180;66104;45.456;11.064;2023-01-01T12:35:23;102045.80;;;12.60
68745;BMP180;66104;45.456;11.064;2023-01-01T12:38:18;102044.00;;;12.58
68745;BMP180;66104;45.456;11.064;2023-01-01T12:41:10;102038.00;;;12.60
68745;BMP180;66104;45.456;11.064;2023-01-01T12:44:03;102035.20;;;12.64
68745;BMP180;66104;45.456;11.064;2023-01-01T12:46:55;102026.20;;;12.70
68745;BMP180;66104;45.456;11.064;2023-01-01T12:50:03;102033.20;;;12.70
68745;BMP180;66104;45.456;11.064;2023-01-01T12:52:56;102029.80;;;12.80
68745;BMP180;66104;45.456;11.064;2023-01-01T12:56:15;102021.80;;;12.70
68745;BMP180;66104;45.456;11.064;2023-01-01T12:59:03;102018.20;;;12.70
68745;BMP180;66104;45.456;11.064;2023-01-01T13:01:44;102018.40;;;12.64
68745;BMP180;66104;45.456;11.064;2023-01-01T13:04:23;102026.60;;;12.60
68745;BMP180;66104;45.456;11.064;2023-01-01T13:07:05;102027.60;;;12.60
68745;BMP180;66104;45.456;11.064;2023-01-01T13:09:45;102028.40;;;12.50
68745;BMP180;66104;45.456;11.064;2023-01-01T13:12:26;102021.80;;;12.46
68745;BMP180;66104;45.456;11.064;2023-01-01T13:15:44;102016.40;;;12.40
68745;BMP180;66104;45.456;11.064;2023-01-01T13:18:36;102019.60;;;12.48
68745;BMP180;66104;45.456;11.064;2023-01-01T13:21:24;102019.40;;;12.50
68745;BMP180;66104;45.456;11.064;2023-01-01T13:24:17;102019.80;;;12.50
68745;BMP180;66104;45.456;11.064;2023-01-01T13:26:56;102015.20;;;12.40
68745;BMP180;66104;45.456;11.064;2023-01-01T13:29:46;102013.80;;;12.40
68745;BMP180;66104;45.456;11.064;2023-01-01T13:32:24;102024.00;;;12.32
68745;BMP180;66104;45.456;11.064;2023-01-01T13:35:16;102016.60;;;12.32
68745;BMP180;66104;45.456;11.064;2023-01-01T13:37:54;102021.60;;;12.30
68745;BMP180;66104;45.456;11.064;2023-01-01T13:40:52;102019.00;;;12.32
68745;BMP180;66104;45.456;11.064;2023-01-01T13:43:33;102018.80;;;12.40
68745;BMP180;66104;45.456;11.064;2023-01-01T13:46:11;102021.80;;;12.30
68745;BMP180;66104;45.456;11.064;2023-01-01T13:49:20;102019.40;;;12.30
68745;BMP180;66104;45.456;11.064;2023-01-01T13:52:19;102018.00;;;12.22
68745;BMP180;66104;45.456;11.064;2023-01-01T13:58:51;102026.60;;;12.20
68745;BMP180;66104;45.456;11.064;2023-01-01T14:01:57;102027.20;;;12.20
68745;BMP180;66104;45.456;11.064;2023-01-01T14:04:42;102032.20;;;12.20
68745;BMP180;66104;45.456;11.064;2023-01-01T14:07:40;102031.60;;;12.20
68745;BMP180;66104;45.456;11.064;2023-01-01T14:10:30;102030.80;;;12.10
68745;BMP180;66104;45.456;11.064;2023-01-01T14:13:18;102030.20;;;12.10
68745;BMP180;66104;45.456;11.064;2023-01-01T14:16:06;102029.60;;;12.10
68745;BMP180;66104;45.456;11.064;2023-01-01T14:18:49;102033.00;;;12.10
68745;BMP180;66104;45.456;11.064;2023-01-01T14:21:31;102033.80;;;12.12
68745;BMP180;66104;45.456;11.064;2023-01-01T14:24:15;102038.00;;;12.20
68745;BMP180;66104;45.456;11.064;2023-01-01T14:26:53;102041.60;;;12.18
68745;BMP180;66104;45.456;11.064;2023-01-01T14:29:34;102042.60;;;12.16
68745;BMP180;66104;45.456;11.064;2023-01-01T14:32:23;102036.80;;;12.10
68745;BMP180;66104;45.456;11.064;2023-01-01T14:35:15;102035.20;;;12.10
68745;BMP180;66104;45.456;11.064;2023-01-01T14:37:52;102034.80;;;12.10
68745;BMP180;66104;45.456;11.064;2023-01-01T14:40:31;102039.60;;;12.10
68745;BMP180;66104;45.456;11.064;2023-01-01T14:43:11;102043.60;;;12.10
68745;BMP180;66104;45.456;11.064;2023-01-01T14:45:48;102046.80;;;12.10
68745;BMP180;66104;45.456;11.064;2023-01-01T14:48:26;102043.40;;;12.10
68745;BMP180;66104;45.456;11.064;2023-01-01T14:51:02;102052.00;;;12.10
68745;BMP180;66104;45.456;11.064;2023-01-01T14:53:39;102042.60;;;12.00
68745;BMP180;66104;45.456;11.064;2023-01-01T14:56:25;102044.80;;;12.02
68745;BMP180;66104;45.456;11.064;2023-01-01T14:59:15;102045.60;;;12.10
68745;BMP180;66104;45.456;11.064;2023-01-01T15:02:02;102049.80;;;12.10
68745;BMP180;66104;45.456;11.064;2023-01-01T15:04:39;102050.40;;;12.10
68745;BMP180;66104;45.456;11.064;2023-01-01T15:07:23;102051.60;;;12.10
68745;BMP180;66104;45.456;11.064;2023-01-01T15:10:02;102046.20;;;12.00
68745;BMP180;66104;45.456;11.064;2023-01-01T15:12:40;102051.40;;;12.00
68745;BMP180;66104;45.456;11.064;2023-01-01T15:15:38;102051.20;;;12.00
68745;BMP180;66104;45.456;11.064;2023-01-01T15:18:43;102053.60;;;12.00
68745;BMP180;66104;45.456;11.064;2023-01-01T15:21:34;102055.20;;;12.00
68745;BMP180;66104;45.456;11.064;2023-01-01T15:24:19;102048.80;;;12.00